Time;durP1;ratioP1;P1;durP2;ratioP2;P2;SDS_P1;SDS_P2;PMS_P1;PMS_P2;Temp;Humidity;BMP_temperature;BMP_pressure;BME280_temperature;BME280_humidity;BME280_pressure;Samples;Min_cycle;Max_cycle;Signal;HPM_P1;HPM_P2
2022/09/27 00:01:12;;;;;;;1.70;1.60;;;10.20;99.90;;;;;;5115027;28;20246;-75
2022/09/27 00:03:39;;;;;;;2.47;1.63;;;10.10;99.90;;;;;;5115124;28;20230;-75
2022/09/27 00:06:08;;;;;;;2.37;1.50;;;10.10;99.90;;;;;;5114940;28;20653;-75
2022/09/27 00:08:36;;;;;;;1.97;1.70;;;10.00;99.90;;;;;;5115088;28;20237;-75
2022/09/27 00:11:04;;;;;;;3.07;1.80;;;10.00;99.90;;;;;;5114942;28;20195;-76
2022/09/27 00:13:31;;;;;;;1.73;1.63;;;10.00;99.90;;;;;;5114886;28;20241;-75
2022/09/27 00:16:02;;;;;;;2.17;1.37;;;10.00;99.90;;;;;;5114700;28;20203;-75
2022/09/27 00:18:29;;;;;;;1.70;1.53;;;9.90;99.90;;;;;;5114900;28;20196;-76
2022/09/27 00:20:56;;;;;;;2.90;1.40;;;9.90;99.90;;;;;;5115062;28;20199;-76
2022/09/27 00:23:23;;;;;;;1.97;1.73;;;10.00;99.90;;;;;;5114518;28;20231;-75
2022/09/27 00:25:56;;;;;;;1.53;1.33;;;9.90;99.90;;;;;;5114489;28;20195;-75
2022/09/27 00:28:23;;;;;;;1.60;1.50;;;9.90;99.90;;;;;;5114397;28;20199;-76
2022/09/27 00:30:50;;;;;;;2.33;1.30;;;10.00;99.90;;;;;;5114635;28;20200;-76
2022/09/27 00:33:18;;;;;;;2.40;1.40;;;10.00;99.90;;;;;;5114524;28;20272;-76
2022/09/27 00:35:45;;;;;;;1.47;1.37;;;10.00;99.90;;;;;;5114428;28;20199;-75
2022/09/27 00:38:12;;;;;;;1.80;1.40;;;10.00;99.90;;;;;;5114448;28;20283;-75
2022/09/27 00:40:39;;;;;;;1.70;1.50;;;10.00;99.90;;;;;;5114275;28;20229;-75
2022/09/27 00:43:15;;;;;;;1.87;1.20;;;9.90;99.90;;;;;;5114591;28;20248;-75
2022/09/27 00:45:42;;;;;;;1.87;1.40;;;9.80;99.90;;;;;;5114312;28;20203;-74
2022/09/27 00:48:15;;;;;;;2.00;1.60;;;9.80;99.90;;;;;;5114139;28;20202;-73
2022/09/27 00:50:47;;;;;;;1.70;1.40;;;9.70;99.90;;;;;;5114178;28;20284;-73
2022/09/27 00:53:18;;;;;;;1.53;1.43;;;9.60;99.90;;;;;;5113966;28;20194;-73
2022/09/27 00:55:49;;;;;;;1.30;1.20;;;9.60;99.90;;;;;;5114075;28;20532;-72
2022/09/27 00:58:20;;;;;;;1.90;1.13;;;9.60;99.90;;;;;;5114375;28;20248;-73
2022/09/27 01:00:50;;;;;;;1.50;1.40;;;9.50;99.90;;;;;;5114044;28;20191;-73
2022/09/27 01:03:26;;;;;;;2.17;1.50;;;9.50;99.90;;;;;;5113864;28;20268;-73
2022/09/27 01:05:55;;;;;;;1.90;1.30;;;9.40;99.90;;;;;;5114017;28;20203;-73
2022/09/27 01:08:21;;;;;;;3.37;1.40;;;9.30;99.90;;;;;;5113898;28;20255;-73
2022/09/27 01:10:59;;;;;;;1.47;1.37;;;9.30;99.90;;;;;;5113605;28;20716;-73
2022/09/27 01:13:34;;;;;;;1.43;1.33;;;9.20;99.90;;;;;;5113760;28;20244;-73
2022/09/27 01:16:10;;;;;;;2.47;1.77;;;9.00;99.90;;;;;;5113648;28;20195;-73
2022/09/27 01:18:44;;;;;;;2.13;1.30;;;9.00;99.90;;;;;;5113629;28;20276;-72
2022/09/27 01:21:33;;;;;;;1.63;1.53;;;8.90;99.90;;;;;;5113770;28;20199;-72
2022/09/27 01:24:36;;;;;;;1.73;1.43;;;8.90;99.90;;;;;;5113517;28;20223;-73
2022/09/27 01:27:43;;;;;;;1.63;1.50;;;8.90;99.90;;;;;;5113658;28;20278;-73
2022/09/27 01:30:27;;;;;;;1.43;1.33;;;8.90;99.90;;;;;;5113460;28;20548;-73
2022/09/27 01:33:08;;;;;;;2.23;1.33;;;8.90;99.90;;;;;;5113357;28;20201;-72
2022/09/27 01:35:38;;;;;;;1.63;1.53;;;8.90;99.90;;;;;;5113273;28;20566;-72
2022/09/27 01:38:15;;;;;;;2.10;1.60;;;8.90;99.90;;;;;;5113393;28;20204;-72
2022/09/27 01:40:50;;;;;;;1.60;1.50;;;8.90;99.90;;;;;;5113334;28;20290;-73
2022/09/27 01:43:22;;;;;;;1.83;1.73;;;8.90;99.90;;;;;;5113251;28;20206;-73
2022/09/27 01:45:54;;;;;;;1.70;1.60;;;8.90;99.90;;;;;;5113419;28;20732;-73
2022/09/27 01:48:23;;;;;;;1.67;1.57;;;8.80;99.90;;;;;;5113385;28;20193;-72
2022/09/27 01:50:54;;;;;;;1.50;1.40;;;8.80;99.90;;;;;;5113217;28;20202;-71
2022/09/27 01:53:25;;;;;;;1.70;1.60;;;8.80;99.90;;;;;;5113284;28;20249;-71
2022/09/27 01:55:54;;;;;;;3.10;1.73;;;8.80;99.90;;;;;;5113028;28;20200;-71
2022/09/27 01:58:25;;;;;;;2.10;1.40;;;8.70;99.90;;;;;;5113276;28;20202;-71
2022/09/27 02:00:55;;;;;;;1.90;1.70;;;8.70;99.90;;;;;;5117415;28;20653;-71
2022/09/27 02:03:25;;;;;;;3.27;2.10;;;8.70;99.90;;;;;;5117256;28;20597;-71
2022/09/27 02:05:57;;;;;;;1.80;1.70;;;8.70;99.90;;;;;;5117138;28;20747;-71
2022/09/27 02:08:30;;;;;;;3.20;2.10;;;8.70;99.90;;;;;;5117169;28;20217;-71
2022/09/27 02:10:59;;;;;;;2.00;1.80;;;8.70;99.90;;;;;;5117317;28;20567;-71
2022/09/27 02:13:34;;;;;;;3.27;2.10;;;8.70;99.90;;;;;;5117215;28;20196;-71
2022/09/27 02:16:13;;;;;;;2.73;1.90;;;8.80;99.90;;;;;;5117143;28;20198;-72
2022/09/27 02:18:49;;;;;;;2.27;1.77;;;8.80;99.90;;;;;;5117072;28;20229;-72
2022/09/27 02:21:19;;;;;;;3.07;1.77;;;8.80;99.90;;;;;;5117077;28;20195;-72
2022/09/27 02:23:50;;;;;;;2.50;1.73;;;8.80;99.90;;;;;;5116875;28;20650;-72
2022/09/27 02:26:20;;;;;;;2.13;1.70;;;8.90;99.90;;;;;;5117055;28;20249;-72
2022/09/27 02:28:54;;;;;;;3.83;1.97;;;8.80;99.90;;;;;;5116913;28;20195;-72
2022/09/27 02:31:22;;;;;;;3.20;1.80;;;8.90;99.90;;;;;;5116870;28;20233;-72
2022/09/27 02:33:53;;;;;;;1.97;1.70;;;8.90;99.90;;;;;;5116906;28;20202;-72
2022/09/27 02:36:21;;;;;;;3.27;1.90;;;8.90;99.90;;;;;;5116742;28;20722;-72
2022/09/27 02:38:49;;;;;;;2.03;1.80;;;8.80;99.90;;;;;;5116665;28;20195;-73
2022/09/27 02:41:17;;;;;;;2.00;1.80;;;8.90;99.90;;;;;;5116579;28;20656;-72
2022/09/27 02:43:47;;;;;;;3.40;1.73;;;8.90;99.90;;;;;;5116457;28;20245;-72
2022/09/27 02:46:33;;;;;;;1.97;1.60;;;8.90;99.90;;;;;;5116985;28;20196;-72
2022/09/27 02:49:19;;;;;;;3.33;2.10;;;8.90;99.90;;;;;;5116345;28;20608;-72
2022/09/27 02:51:54;;;;;;;2.00;1.70;;;8.90;99.90;;;;;;5116461;28;20278;-72
2022/09/27 02:54:28;;;;;;;1.70;1.60;;;8.90;99.90;;;;;;5116277;28;20196;-72
2022/09/27 02:57:03;;;;;;;3.27;1.77;;;8.90;99.90;;;;;;5116427;28;20199;-72
2022/09/27 02:59:38;;;;;;;1.83;1.63;;;8.90;99.90;;;;;;5116147;28;20650;-72
2022/09/27 03:02:13;;;;;;;2.90;1.80;;;8.90;99.90;;;;;;5116275;28;20195;-72
2022/09/27 03:04:46;;;;;;;1.70;1.60;;;8.90;99.90;;;;;;5116012;28;20612;-72
2022/09/27 03:07:14;;;;;;;1.60;1.43;;;8.90;99.90;;;;;;5116297;28;20204;-72
2022/09/27 03:09:44;;;;;;;2.37;1.80;;;8.90;99.90;;;;;;5116000;28;20601;-73
2022/09/27 03:12:11;;;;;;;1.60;1.50;;;9.00;99.90;;;;;;5114735;28;20731;-73
2022/09/27 03:14:38;;;;;;;1.50;1.40;;;8.90;99.90;;;;;;5115954;28;20204;-72
2022/09/27 03:17:04;;;;;;;1.73;1.63;;;8.90;99.90;;;;;;5115853;28;20256;-72
2022/09/27 03:19:32;;;;;;;1.70;1.60;;;8.90;99.90;;;;;;5116036;28;20202;-72
2022/09/27 03:21:59;;;;;;;2.43;1.60;;;8.80;99.90;;;;;;5115565;28;20713;-72
2022/09/27 03:24:26;;;;;;;1.83;1.70;;;8.80;99.90;;;;;;5115767;28;20272;-72
2022/09/27 03:26:52;;;;;;;2.37;1.70;;;8.90;99.90;;;;;;5115747;28;20598;-72
2022/09/27 03:29:19;;;;;;;2.00;1.47;;;8.90;99.90;;;;;;5115588;28;20196;-72
2022/09/27 03:31:45;;;;;;;1.80;1.50;;;8.90;99.90;;;;;;5115549;28;20252;-72
2022/09/27 03:34:12;;;;;;;4.37;2.10;;;8.90;99.90;;;;;;5115932;28;20199;-71
2022/09/27 03:36:40;;;;;;;1.53;1.43;;;8.90;99.90;;;;;;5115592;28;20204;-71
2022/09/27 03:39:07;;;;;;;1.60;1.50;;;8.90;99.90;;;;;;5115547;28;20192;-71
2022/09/27 03:41:33;;;;;;;1.47;1.37;;;8.90;99.90;;;;;;5115331;28;20724;-71
2022/09/27 03:44:00;;;;;;;1.73;1.60;;;8.90;99.90;;;;;;5115303;28;20200;-72
2022/09/27 03:46:27;;;;;;;2.60;1.63;;;8.90;99.90;;;;;;5115277;28;20200;-71
2022/09/27 03:48:54;;;;;;;1.97;1.77;;;8.90;99.90;;;;;;5115457;28;20199;-70
2022/09/27 03:51:21;;;;;;;1.90;1.70;;;8.90;99.90;;;;;;5115419;27;20299;-71
2022/09/27 03:53:49;;;;;;;2.13;1.60;;;8.90;99.90;;;;;;5115290;28;20200;-70
2022/09/27 03:56:16;;;;;;;1.70;1.60;;;8.90;99.90;;;;;;5115057;28;20669;-71
2022/09/27 03:58:42;;;;;;;1.70;1.43;;;8.90;99.90;;;;;;5115034;28;20195;-71
2022/09/27 04:01:09;;;;;;;2.40;1.80;;;8.90;99.90;;;;;;5115224;28;20229;-71
2022/09/27 04:03:37;;;;;;;1.77;1.67;;;8.90;99.90;;;;;;5115168;28;20200;-71
2022/09/27 04:06:03;;;;;;;3.03;1.60;;;8.90;99.90;;;;;;5114966;28;20233;-72
2022/09/27 04:08:30;;;;;;;2.57;1.90;;;8.90;99.90;;;;;;5114922;28;20199;-71
2022/09/27 04:10:58;;;;;;;2.00;1.80;;;8.90;99.90;;;;;;5115554;28;20203;-72
2022/09/27 04:13:25;;;;;;;2.40;2.20;;;8.90;99.90;;;;;;5117684;28;20218;-72
2022/09/27 04:15:51;;;;;;;3.00;1.73;;;8.90;99.90;;;;;;5122731;28;20199;-72
2022/09/27 04:18:18;;;;;;;3.07;1.90;;;8.70;99.90;;;;;;5120832;28;20201;-71
2022/09/27 04:20:45;;;;;;;2.90;2.00;;;8.60;99.90;;;;;;5120967;28;20203;-72
2022/09/27 04:23:11;;;;;;;3.33;2.30;;;8.50;99.90;;;;;;5116702;28;20231;-70
2022/09/27 04:25:39;;;;;;;3.97;2.30;;;8.50;99.90;;;;;;5116881;28;20231;-70
2022/09/27 04:28:07;;;;;;;3.70;2.30;;;8.50;99.90;;;;;;5114836;28;20573;-71
2022/09/27 04:30:33;;;;;;;4.00;2.40;;;8.50;99.90;;;;;;5115368;28;20233;-71
2022/09/27 04:33:00;;;;;;;7.03;2.90;;;8.50;99.90;;;;;;5117701;28;20196;-72
2022/09/27 04:38:12;;;;;;;5.43;3.30;;;8.50;99.90;;;;;;5118299;28;20241;-71
2022/09/27 04:40:38;;;;;;;5.97;3.27;;;8.40;99.90;;;;;;5119953;28;20231;-72
2022/09/27 04:43:06;;;;;;;4.50;2.90;;;8.40;99.90;;;;;;5115138;28;20196;-72
2022/09/27 04:45:33;;;;;;;5.53;3.20;;;8.40;99.90;;;;;;5115549;28;20268;-71
2022/09/27 04:48:00;;;;;;;7.07;3.77;;;8.40;99.90;;;;;;5115082;28;20204;-70
2022/09/27 04:50:27;;;;;;;8.07;3.63;;;8.30;99.90;;;;;;5114116;28;20585;-72
2022/09/27 04:52:54;;;;;;;6.43;3.87;;;8.30;99.90;;;;;;5114080;28;20200;-70
2022/09/27 04:55:22;;;;;;;6.97;4.10;;;8.30;99.90;;;;;;5114212;28;20204;-71
2022/09/27 04:57:49;;;;;;;7.27;4.30;;;8.30;99.90;;;;;;5114001;28;20270;-72
2022/09/27 05:00:17;;;;;;;10.13;4.30;;;8.30;99.90;;;;;;5113976;28;20196;-72
2022/09/27 05:02:44;;;;;;;7.93;4.73;;;8.30;99.90;;;;;;5113892;28;20197;-71
2022/09/27 05:05:11;;;;;;;6.87;4.63;;;8.30;99.90;;;;;;5113750;27;20290;-71
2022/09/27 05:07:38;;;;;;;6.43;4.63;;;8.30;99.90;;;;;;5113743;28;20264;-71
2022/09/27 05:10:06;;;;;;;7.83;5.00;;;8.30;99.90;;;;;;5113954;28;20203;-71
2022/09/27 05:12:32;;;;;;;6.87;4.80;;;8.20;99.90;;;;;;5113923;28;20241;-70
2022/09/27 05:14:59;;;;;;;6.37;4.53;;;8.20;99.90;;;;;;5114569;28;20268;-70
2022/09/27 05:17:27;;;;;;;6.20;4.63;;;8.30;99.90;;;;;;5114432;28;20196;-69
2022/09/27 05:19:53;;;;;;;5.57;4.50;;;8.30;99.90;;;;;;5114301;28;20220;-70
2022/09/27 05:22:20;;;;;;;15.90;11.63;;;8.30;99.90;;;;;;5113492;28;20707;-70
2022/09/27 05:24:47;;;;;;;10.20;6.50;;;8.30;99.90;;;;;;5115107;28;20253;-71
2022/09/27 05:27:17;;;;;;;7.93;5.17;;;8.30;99.90;;;;;;5114043;28;20643;-71
2022/09/27 05:29:44;;;;;;;8.70;4.60;;;8.30;99.90;;;;;;5113521;28;20288;-71
2022/09/27 05:32:10;;;;;;;7.97;7.17;;;8.30;99.90;;;;;;5113324;28;20241;-71
2022/09/27 05:34:38;;;;;;;8.63;5.83;;;8.30;99.90;;;;;;5112378;28;20207;-71
2022/09/27 05:37:05;;;;;;;7.93;6.33;;;8.30;99.90;;;;;;5113630;28;20274;-71
2022/09/27 05:39:32;;;;;;;7.60;5.40;;;8.30;99.90;;;;;;5113364;28;20540;-70
2022/09/27 05:41:58;;;;;;;10.33;4.97;;;8.30;99.90;;;;;;5113308;28;20700;-70
2022/09/27 05:44:25;;;;;;;8.57;4.53;;;8.30;99.90;;;;;;5113359;28;20196;-71
2022/09/27 05:46:52;;;;;;;7.13;4.73;;;8.30;99.90;;;;;;5112973;28;20252;-71
2022/09/27 05:49:19;;;;;;;6.03;4.43;;;8.20;99.90;;;;;;5112949;28;20532;-73
2022/09/27 05:51:47;;;;;;;6.20;4.60;;;8.20;99.90;;;;;;5113289;28;20725;-72
2022/09/27 05:54:13;;;;;;;6.40;4.30;;;8.20;99.90;;;;;;5114803;28;20196;-71
2022/09/27 05:56:40;;;;;;;7.30;4.50;;;8.20;99.90;;;;;;5113224;28;20204;-71
2022/09/27 05:59:07;;;;;;;5.90;4.70;;;8.20;99.90;;;;;;5113381;28;20196;-71
2022/09/27 06:01:34;;;;;;;5.83;4.37;;;8.20;99.90;;;;;;5112980;28;20196;-71
2022/09/27 06:04:01;;;;;;;5.10;4.40;;;8.20;99.90;;;;;;5112870;28;20264;-71
2022/09/27 06:06:27;;;;;;;7.07;4.53;;;8.10;99.90;;;;;;5114822;28;20252;-71
2022/09/27 06:08:56;;;;;;;5.60;3.93;;;8.10;99.90;;;;;;5114253;28;20265;-72
2022/09/27 06:11:24;;;;;;;5.63;3.47;;;8.10;99.90;;;;;;5116557;28;20237;-72
2022/09/27 06:13:50;;;;;;;5.43;3.40;;;8.10;99.90;;;;;;5116797;28;20199;-71
2022/09/27 06:16:17;;;;;;;5.50;3.80;;;8.10;99.90;;;;;;5115905;28;20194;-71
2022/09/27 06:18:43;;;;;;;3.77;3.30;;;8.10;99.90;;;;;;5113250;28;20200;-72
2022/09/27 06:21:12;;;;;;;7.80;3.80;;;8.10;99.90;;;;;;5112819;28;20213;-71
2022/09/27 06:23:38;;;;;;;4.73;3.23;;;8.10;99.90;;;;;;5113350;28;20650;-71
2022/09/27 06:26:07;;;;;;;7.03;3.60;;;8.10;99.90;;;;;;5117415;28;20695;-71
2022/09/27 06:28:34;;;;;;;4.37;3.57;;;8.10;99.90;;;;;;5116895;28;20666;-73
2022/09/27 06:31:01;;;;;;;7.80;4.10;;;8.00;99.90;;;;;;5116076;28;20287;-72
2022/09/27 06:33:28;;;;;;;4.87;4.10;;;8.00;99.90;;;;;;5113794;28;20261;-70
2022/09/27 06:35:54;;;;;;;6.33;4.30;;;8.00;99.90;;;;;;5115476;28;20292;-71
2022/09/27 06:38:22;;;;;;;4.90;3.77;;;8.00;99.90;;;;;;5113956;28;20197;-71
2022/09/27 06:40:49;;;;;;;4.43;3.90;;;8.10;99.90;;;;;;5114719;28;20286;-70
2022/09/27 06:43:19;;;;;;;5.80;3.77;;;8.10;99.90;;;;;;5115717;28;20203;-70
2022/09/27 06:45:46;;;;;;;5.27;4.10;;;8.10;99.90;;;;;;5116928;28;20243;-72
2022/09/27 06:48:14;;;;;;;4.40;3.77;;;8.10;99.90;;;;;;5116762;28;20196;-70
2022/09/27 06:50:43;;;;;;;4.37;3.90;;;8.10;99.90;;;;;;5116407;28;20197;-71
2022/09/27 06:53:11;;;;;;;3.50;3.10;;;8.20;99.90;;;;;;5116513;28;20273;-70
2022/09/27 06:55:39;;;;;;;3.60;3.17;;;8.30;99.90;;;;;;5117307;28;20204;-71
2022/09/27 07:00:52;;;;;;;5.13;2.93;;;8.30;99.90;;;;;;5117053;28;20207;-72
2022/09/27 07:03:21;;;;;;;5.43;2.93;;;8.40;99.90;;;;;;5116338;28;20601;-72
2022/09/27 07:05:55;;;;;;;4.33;3.23;;;8.50;99.90;;;;;;5116359;28;20222;-72
2022/09/27 07:08:22;;;;;;;3.63;2.63;;;8.50;99.90;;;;;;5116138;28;20278;-72
2022/09/27 07:10:49;;;;;;;3.47;2.97;;;8.50;99.90;;;;;;5116327;27;20194;-74
2022/09/27 07:13:16;;;;;;;3.17;2.60;;;8.60;99.90;;;;;;5116175;28;20202;-71
2022/09/27 07:15:43;;;;;;;3.07;2.60;;;8.70;99.90;;;;;;5115945;28;20208;-71
2022/09/27 07:18:10;;;;;;;2.87;2.60;;;8.70;99.90;;;;;;5116041;28;20200;-71
2022/09/27 07:20:37;;;;;;;4.47;2.43;;;8.70;99.90;;;;;;5115911;28;20192;-71
2022/09/27 07:23:04;;;;;;;3.43;2.70;;;8.70;99.90;;;;;;5115528;28;20637;-71
2022/09/27 07:25:32;;;;;;;2.60;2.37;;;8.80;99.90;;;;;;5115962;28;20230;-71
2022/09/27 07:28:01;;;;;;;2.97;2.50;;;8.80;99.90;;;;;;5115934;28;20208;-71
2022/09/27 07:30:28;;;;;;;2.57;2.30;;;8.90;99.90;;;;;;5115664;28;20195;-71
2022/09/27 07:32:58;;;;;;;3.20;2.27;;;9.10;99.90;;;;;;5115673;28;20199;-71
2022/09/27 07:35:26;;;;;;;2.57;2.37;;;9.30;99.90;;;;;;5115592;28;20199;-71
2022/09/27 07:37:53;;;;;;;2.27;1.90;;;9.40;99.90;;;;;;5115681;28;20238;-72
2022/09/27 07:40:20;;;;;;;2.10;1.90;;;9.40;99.90;;;;;;5115536;28;20207;-71
2022/09/27 07:42:47;;;;;;;4.40;2.20;;;9.30;99.90;;;;;;5115475;28;20252;-71
2022/09/27 07:45:15;;;;;;;2.80;1.80;;;9.30;99.90;;;;;;5115155;28;20196;-71
2022/09/27 07:47:41;;;;;;;3.47;2.10;;;9.30;99.90;;;;;;5115264;28;20207;-71
2022/09/27 07:50:09;;;;;;;3.50;1.90;;;9.30;99.90;;;;;;5115326;28;20311;-73
2022/09/27 07:52:40;;;;;;;2.00;1.80;;;9.40;99.90;;;;;;5115450;28;20196;-73
2022/09/27 07:55:09;;;;;;;1.83;1.70;;;9.40;99.90;;;;;;5115321;28;20206;-72
2022/09/27 07:57:36;;;;;;;2.03;1.90;;;9.20;99.90;;;;;;5114391;28;20203;-72
2022/09/27 08:00:05;;;;;;;2.23;1.90;;;9.20;99.90;;;;;;5115137;28;20195;-73
2022/09/27 08:02:32;;;;;;;2.20;2.00;;;9.10;99.90;;;;;;5114910;28;20647;-73
2022/09/27 08:04:59;;;;;;;2.53;1.90;;;9.10;99.90;;;;;;5115270;28;20673;-72
2022/09/27 08:07:25;;;;;;;2.00;1.80;;;8.80;99.90;;;;;;5115794;28;20269;-72
2022/09/27 08:09:53;;;;;;;2.80;2.57;;;8.70;99.90;;;;;;5115225;28;20203;-72
2022/09/27 08:12:21;;;;;;;3.57;2.03;;;8.50;99.90;;;;;;5115802;28;20204;-72
2022/09/27 08:14:48;;;;;;;3.10;2.43;;;8.30;99.90;;;;;;5115267;28;20655;-72
2022/09/27 08:17:14;;;;;;;5.23;3.27;;;8.30;99.90;;;;;;5115433;28;20648;-72
2022/09/27 08:19:43;;;;;;;3.13;2.83;;;8.20;99.90;;;;;;5115384;28;20195;-72
2022/09/27 08:22:11;;;;;;;5.60;3.17;;;8.30;99.90;;;;;;5115021;28;20246;-72
2022/09/27 08:24:38;;;;;;;3.50;3.20;;;8.30;99.90;;;;;;5117303;28;20199;-72
2022/09/27 08:27:07;;;;;;;3.57;2.93;;;8.40;99.90;;;;;;5121939;28;20743;-73
2022/09/27 08:29:34;;;;;;;3.93;2.93;;;8.40;99.90;;;;;;5120699;28;20195;-73
2022/09/27 08:32:01;;;;;;;4.43;3.17;;;8.50;99.90;;;;;;5121820;28;20728;-72
2022/09/27 08:34:28;;;;;;;3.13;2.77;;;8.50;99.90;;;;;;5121548;28;20235;-72
2022/09/27 08:36:54;;;;;;;3.33;2.27;;;8.60;99.90;;;;;;5114487;28;20677;-72
2022/09/27 08:39:21;;;;;;;3.37;2.10;;;8.70;99.90;;;;;;5121920;28;20227;-72
2022/09/27 08:41:56;;;;;;;3.53;2.20;;;8.70;99.90;;;;;;5121381;28;20199;-73
2022/09/27 08:44:33;;;;;;;2.40;2.20;;;8.70;99.90;;;;;;5117828;28;20248;-72
2022/09/27 08:47:08;;;;;;;4.67;2.00;;;8.90;99.90;;;;;;5114269;28;20274;-72
2022/09/27 08:49:39;;;;;;;3.87;1.97;;;8.90;99.90;;;;;;5114163;28;20221;-71
2022/09/27 08:52:09;;;;;;;2.27;1.80;;;8.90;99.90;;;;;;5114120;28;20631;-71
2022/09/27 08:54:37;;;;;;;2.37;1.90;;;8.90;99.90;;;;;;5114108;28;20200;-72
2022/09/27 08:57:10;;;;;;;2.43;1.90;;;8.80;99.90;;;;;;5114436;28;20195;-72
2022/09/27 08:59:41;;;;;;;2.30;2.10;;;8.70;99.90;;;;;;5114537;28;20202;-71
2022/09/27 09:02:17;;;;;;;3.47;2.00;;;8.70;99.90;;;;;;5114017;28;20623;-72
2022/09/27 09:04:46;;;;;;;2.63;2.30;;;8.60;99.90;;;;;;5114442;28;20197;-72
2022/09/27 09:07:25;;;;;;;4.90;2.50;;;8.70;99.90;;;;;;5113484;28;20691;-71
2022/09/27 09:09:58;;;;;;;5.47;2.67;;;9.00;99.90;;;;;;5113833;28;20199;-72
2022/09/27 09:12:48;;;;;;;2.97;2.40;;;9.20;99.90;;;;;;5113995;28;20279;-73
2022/09/27 09:15:31;;;;;;;3.33;2.73;;;9.10;99.90;;;;;;5113668;28;20191;-72
2022/09/27 09:18:22;;;;;;;4.07;2.70;;;8.90;99.90;;;;;;5113888;27;20276;-73
2022/09/27 09:20:58;;;;;;;3.37;3.07;;;8.90;99.90;;;;;;5113852;28;20197;-73
2022/09/27 09:23:42;;;;;;;3.07;2.80;;;9.00;99.90;;;;;;5113457;28;20219;-72
2022/09/27 09:26:17;;;;;;;4.57;2.77;;;9.10;99.90;;;;;;5113778;28;20215;-73
2022/09/27 09:28:53;;;;;;;4.80;3.10;;;9.10;99.90;;;;;;5113658;28;20203;-74
2022/09/27 09:31:27;;;;;;;5.07;3.07;;;9.00;99.90;;;;;;5114149;28;20195;-71
2022/09/27 09:33:58;;;;;;;3.40;3.07;;;8.70;99.90;;;;;;5114306;28;20221;-72
2022/09/27 09:36:31;;;;;;;4.60;3.60;;;8.80;99.90;;;;;;5113400;28;20203;-71
2022/09/27 09:39:02;;;;;;;5.90;3.47;;;8.80;99.90;;;;;;5113939;28;20294;-72
2022/09/27 09:41:33;;;;;;;4.23;3.30;;;8.90;99.90;;;;;;5113548;28;20196;-72
2022/09/27 09:44:05;;;;;;;4.20;3.80;;;9.00;99.90;;;;;;5113601;28;20228;-72
2022/09/27 09:46:36;;;;;;;4.10;3.30;;;9.10;99.90;;;;;;5113241;28;20215;-72
2022/09/27 09:49:13;;;;;;;5.20;3.33;;;9.00;99.90;;;;;;5113673;28;20247;-72
2022/09/27 09:51:46;;;;;;;3.30;3.00;;;9.00;99.90;;;;;;5113733;28;20286;-72
2022/09/27 09:54:22;;;;;;;4.23;3.50;;;9.00;99.90;;;;;;5113209;28;20562;-74
2022/09/27 09:56:55;;;;;;;3.67;3.10;;;9.10;99.90;;;;;;5113354;28;20203;-71
2022/09/27 09:59:29;;;;;;;3.73;2.80;;;8.90;99.90;;;;;;5113225;28;20195;-71
2022/09/27 10:02:01;;;;;;;2.60;2.40;;;9.20;99.90;;;;;;5113194;28;20196;-71
2022/09/27 10:04:28;;;;;;;2.80;2.60;;;9.10;99.90;;;;;;5113250;28;20240;-71
2022/09/27 10:06:57;;;;;;;4.57;2.80;;;9.20;99.90;;;;;;5113046;28;20264;-72
2022/09/27 10:09:27;;;;;;;2.90;2.50;;;9.20;99.90;;;;;;5113114;28;20228;-71
2022/09/27 10:11:54;;;;;;;3.27;2.97;;;8.90;99.90;;;;;;5113685;28;20192;-72
2022/09/27 10:14:22;;;;;;;3.13;2.83;;;8.60;99.90;;;;;;5113509;28;20199;-71
2022/09/27 10:16:53;;;;;;;3.97;2.50;;;8.50;99.90;;;;;;5113851;28;20268;-70
2022/09/27 10:19:28;;;;;;;2.47;2.20;;;8.40;99.90;;;;;;5113558;28;20210;-71
2022/09/27 10:22:01;;;;;;;3.47;2.30;;;8.50;99.90;;;;;;5117667;28;20231;-70
2022/09/27 10:24:27;;;;;;;3.30;2.10;;;8.50;99.90;;;;;;5117279;28;20268;-71
2022/09/27 10:26:59;;;;;;;2.20;2.00;;;8.50;99.90;;;;;;5117503;28;20276;-71
2022/09/27 10:29:31;;;;;;;2.50;2.30;;;8.60;99.90;;;;;;5116972;28;20191;-72
2022/09/27 10:32:02;;;;;;;2.93;2.27;;;9.00;99.90;;;;;;5116870;28;20207;-71
2022/09/27 10:34:33;;;;;;;3.30;2.53;;;9.50;99.90;;;;;;5116720;28;20195;-72
2022/09/27 10:37:17;;;;;;;2.67;2.40;;;9.50;99.90;;;;;;5116978;28;20200;-71
2022/09/27 10:39:45;;;;;;;2.23;2.03;;;10.00;99.90;;;;;;5116690;28;20199;-71
2022/09/27 10:42:21;;;;;;;2.53;2.03;;;9.80;99.90;;;;;;5116767;28;20199;-72
2022/09/27 10:44:48;;;;;;;2.10;1.90;;;10.00;99.90;;;;;;5116637;28;20244;-72
2022/09/27 10:47:21;;;;;;;2.17;1.80;;;9.80;99.90;;;;;;5116425;28;20556;-71
2022/09/27 10:49:51;;;;;;;2.37;2.17;;;9.60;99.90;;;;;;5116729;28;20272;-71
2022/09/27 10:52:19;;;;;;;2.40;2.00;;;9.90;99.90;;;;;;5116839;28;20196;-71
2022/09/27 10:54:54;;;;;;;1.60;1.50;;;10.80;99.90;;;;;;5116318;28;20191;-71
2022/09/27 10:57:22;;;;;;;1.70;1.40;;;11.10;99.90;;;;;;5116531;28;20195;-71
2022/09/27 10:59:52;;;;;;;1.40;1.30;;;11.40;99.90;;;;;;5116255;28;20222;-71
2022/09/27 11:02:21;;;;;;;1.40;1.30;;;11.00;99.90;;;;;;5116333;28;20199;-72
2022/09/27 11:05:10;;;;;;;2.20;1.50;;;10.60;99.90;;;;;;5116567;28;20196;-72
2022/09/27 11:07:37;;;;;;;1.67;1.57;;;10.20;99.90;;;;;;5116135;28;20224;-72
2022/09/27 11:10:23;;;;;;;2.60;2.00;;;10.20;99.90;;;;;;5116291;28;20199;-73
2022/09/27 11:13:07;;;;;;;2.67;1.40;;;10.20;99.90;;;;;;5116375;28;20199;-73
2022/09/27 11:15:49;;;;;;;2.20;2.00;;;10.00;99.90;;;;;;5116191;28;20200;-73
2022/09/27 11:18:24;;;;;;;3.40;2.03;;;10.10;99.90;;;;;;5115905;28;20195;-72
2022/09/27 11:21:01;;;;;;;1.87;1.60;;;11.20;99.90;;;;;;5115690;28;20654;-73
2022/09/27 11:23:49;;;;;;;2.17;1.97;;;10.60;99.90;;;;;;5115740;28;20292;-72
2022/09/27 11:26:32;;;;;;;2.50;2.30;;;10.20;99.90;;;;;;5112475;28;20655;-72
2022/09/27 11:29:10;;;;;;;2.00;1.83;;;9.90;99.90;;;;;;5115767;28;20204;-73
2022/09/27 11:31:44;;;;;;;2.43;1.90;;;9.90;99.90;;;;;;5115215;28;20199;-72
2022/09/27 11:34:43;;;;;;;2.30;1.87;;;9.90;99.90;;;;;;5116370;27;20672;-73
2022/09/27 11:37:22;;;;;;;2.63;2.33;;;10.00;99.90;;;;;;5116339;28;20268;-73
2022/09/27 11:40:04;;;;;;;5.83;2.53;;;10.70;99.90;;;;;;5116232;28;20195;-73
2022/09/27 11:42:48;;;;;;;2.60;2.37;;;10.10;99.90;;;;;;5116059;28;20195;-73
2022/09/27 11:45:35;;;;;;;4.10;2.50;;;9.60;99.90;;;;;;5115494;28;20203;-71
2022/09/27 11:48:16;;;;;;;3.10;2.70;;;9.50;99.90;;;;;;5115592;28;20300;-72
2022/09/27 11:51:07;;;;;;;3.20;2.90;;;9.60;99.90;;;;;;5115516;28;20256;-72
2022/09/27 11:53:51;;;;;;;4.27;2.50;;;10.60;99.90;;;;;;5111060;28;20587;-73
2022/09/27 11:56:27;;;;;;;3.47;3.00;;;10.30;99.90;;;;;;5115485;28;20249;-72
2022/09/27 11:59:07;;;;;;;4.13;3.10;;;9.90;99.90;;;;;;5115266;28;20331;-71
2022/09/27 12:01:42;;;;;;;3.90;3.17;;;9.60;99.90;;;;;;5115228;28;20191;-73
2022/09/27 12:04:26;;;;;;;3.70;3.40;;;9.30;99.90;;;;;;5115057;28;20198;-73
2022/09/27 12:07:02;;;;;;;4.07;3.10;;;9.20;99.90;;;;;;5115603;28;20204;-71
2022/09/27 12:09:35;;;;;;;3.20;2.57;;;8.60;99.90;;;;;;5115979;28;20253;-70
2022/09/27 12:12:08;;;;;;;4.20;2.43;;;8.20;99.90;;;;;;5115634;28;20655;-71
2022/09/27 12:14:38;;;;;;;5.27;2.97;;;8.20;99.90;;;;;;5115567;28;20237;-71
2022/09/27 12:17:11;;;;;;;6.50;3.30;;;8.40;99.90;;;;;;5115842;28;20605;-71
2022/09/27 12:19:42;;;;;;;4.37;3.07;;;8.70;99.90;;;;;;5115639;28;20785;-71
2022/09/27 12:22:14;;;;;;;4.10;3.60;;;8.90;99.90;;;;;;5115137;28;20283;-71
2022/09/27 12:24:44;;;;;;;5.20;3.53;;;9.00;99.90;;;;;;5114773;28;20195;-71
2022/09/27 12:27:16;;;;;;;5.80;3.43;;;9.10;99.90;;;;;;5114378;28;20219;-71
2022/09/27 12:29:46;;;;;;;3.83;3.37;;;9.30;99.90;;;;;;5114740;28;20275;-72
2022/09/27 12:32:17;;;;;;;4.87;3.70;;;9.30;99.90;;;;;;5114555;28;20276;-72
2022/09/27 12:34:49;;;;;;;6.83;3.77;;;9.30;99.90;;;;;;5114371;28;20712;-72
2022/09/27 12:37:20;;;;;;;5.37;3.40;;;9.30;99.90;;;;;;5114511;28;20323;-72
2022/09/27 12:39:54;;;;;;;6.37;3.40;;;9.20;99.90;;;;;;5114453;28;20261;-72
2022/09/27 12:42:24;;;;;;;5.87;3.40;;;9.30;99.90;;;;;;5114200;28;20678;-72
2022/09/27 12:44:52;;;;;;;4.53;3.60;;;9.60;99.90;;;;;;5114350;28;20613;-72
2022/09/27 12:47:32;;;;;;;7.03;4.00;;;9.80;99.90;;;;;;5114141;28;20261;-72
2022/09/27 12:50:08;;;;;;;6.13;3.97;;;9.90;99.90;;;;;;5114140;28;20196;-72
2022/09/27 12:52:40;;;;;;;5.80;3.90;;;9.80;99.90;;;;;;5114243;28;20206;-72
2022/09/27 12:55:34;;;;;;;4.53;3.50;;;9.60;99.90;;;;;;5114173;28;20196;-72
2022/09/27 12:58:29;;;;;;;4.73;3.20;;;9.60;99.90;;;;;;5114004;28;20593;-72
2022/09/27 13:00:59;;;;;;;4.00;2.57;;;9.80;99.90;;;;;;5114139;28;20199;-72
2022/09/27 13:03:47;;;;;;;2.83;2.50;;;9.70;99.90;;;;;;5113858;28;20200;-72
2022/09/27 13:06:41;;;;;;;3.07;2.77;;;9.80;99.90;;;;;;5113931;28;20786;-73
2022/09/27 13:09:29;;;;;;;4.63;2.57;;;9.60;99.90;;;;;;5114083;28;20223;-72
2022/09/27 13:12:03;;;;;;;4.63;2.60;;;9.70;99.90;;;;;;5113831;28;20195;-71
2022/09/27 13:14:35;;;;;;;2.53;2.20;;;9.90;99.90;;;;;;5114041;28;20511;-72
2022/09/27 13:17:02;;;;;;;2.23;1.90;;;9.90;99.90;;;;;;5113596;28;20260;-73
2022/09/27 13:19:42;;;;;;;3.50;2.23;;;9.60;99.90;;;;;;5114019;28;20287;-72
2022/09/27 13:22:10;;;;;;;2.80;1.90;;;9.80;99.90;;;;;;5113712;28;20237;-73